메인 페이지
METAR-TAF:

METAR-TAF

공항 :

킹 압둘아지즈 국제공항

지다, 사우디아라비아

위도: 21-42N, 경도: 039-11E, 고도: 15m

현재 날씨관측

예보는 26분 전, 19:00시(UTC)에 발표되었습니다.
북북서5kt
온도 31°C
습도 75%
기압 1007 hPa
시정 10km 이상
고도 4000ft 상공 구름 조금

METAR: OEJN 201900Z 34005KT 9999 FEW040 31/26 Q1007 NOSIG

시각: 22:26 (19:26 UTC)

예보

예보는 2 시간 26분 전, 17:00시(UTC)에 발표되었습니다.
예보 대상 시간: 20일 18시부터 21일 24시까지 (UTC)
8kt
시정 10km 이상
고도 4000ft 상공 구름 조금
전환 중
20일 21시부터 20일 23시까지 (UTC)
여러 방향의 바람 3kt
일시적
21일 00시부터 21일 04시까지 (UTC)
시정: 6000m
전환 중
21일 06시부터 21일 08시까지 (UTC)
12kt

TAF: OEJN 201700Z 2018/2124 36008KT 9999 FEW040 BECMG 2021/2023 VRB03KT TEMPO 2100/2104 6000 NSC BECMG 2106/2108 26012KT

4,000개 이상의 공항 관측 자료 및 예보 (METAR 및 TAF 보고).

지도상에서 검색 가능한 기상관측소가 노란 점과 빨간 점으로 표시되어 있습니다.

기상관측소 명을 보려면 표시 위로 마우스를 이동하세요.

날씨 관측과 예보를 보려면 클릭하세요.

지도 변경 : 확대하려면 엑스 표시가 있는 녹색 버튼, 축소하려면 빼기 표시가 있는 녹색 버튼, 다음 페이지의 지도를 보려면 녹색 화살표를 클릭하세요.


METAR-TAF: